createdAt,value
2022-12-07T03:59:55.565Z,0.00
2022-12-07T04:00:55.522Z,0.00
2022-12-07T04:01:55.620Z,0.00
2022-12-07T04:02:55.564Z,0.00
2022-12-07T04:03:55.485Z,0.00
2022-12-07T04:04:55.484Z,0.00
2022-12-07T04:05:55.466Z,0.00
2022-12-07T04:06:55.470Z,0.00
2022-12-07T04:07:55.488Z,0.00
2022-12-07T04:08:55.450Z,0.00
2022-12-07T04:09:55.442Z,0.00
2022-12-07T04:10:55.440Z,0.00
2022-12-07T04:11:55.440Z,0.00
2022-12-07T04:12:55.450Z,0.00
2022-12-07T04:13:55.430Z,0.00
2022-12-07T04:14:55.414Z,0.00
2022-12-07T04:15:55.553Z,0.00
2022-12-07T04:16:55.410Z,0.00
2022-12-07T04:17:55.392Z,0.00
2022-12-07T04:18:55.388Z,0.00
2022-12-07T04:19:55.384Z,0.00
2022-12-07T04:20:55.391Z,0.00
2022-12-07T04:21:55.374Z,0.00
2022-12-07T04:22:55.396Z,0.00
2022-12-07T04:23:55.371Z,0.00
2022-12-07T04:24:55.358Z,0.00
2022-12-07T04:25:55.353Z,0.00
2022-12-07T04:26:55.392Z,0.00
2022-12-07T04:27:55.348Z,0.00
2022-12-07T04:28:55.336Z,0.00
2022-12-07T04:29:55.335Z,0.00
2022-12-07T04:30:55.471Z,0.00
2022-12-07T04:31:55.410Z,0.00
2022-12-07T04:32:55.314Z,0.00
2022-12-07T04:33:55.318Z,0.00
2022-12-07T04:34:56.022Z,0.00
2022-12-07T04:35:55.309Z,0.00
2022-12-07T04:36:55.301Z,0.00
2022-12-07T04:37:55.307Z,0.00
2022-12-07T04:38:55.320Z,0.00
2022-12-07T04:39:55.281Z,0.00
2022-12-07T04:40:55.297Z,0.00
2022-12-07T04:41:55.278Z,0.00
2022-12-07T04:42:55.289Z,0.00
2022-12-07T04:43:55.292Z,0.00
2022-12-07T04:44:55.261Z,0.00
2022-12-07T04:45:55.255Z,0.00
2022-12-07T04:46:55.389Z,0.00
2022-12-07T04:47:55.286Z,0.00
2022-12-07T04:48:55.275Z,0.00
2022-12-07T04:49:55.241Z,0.00
2022-12-07T04:50:55.231Z,0.00
2022-12-07T04:51:55.227Z,0.00
2022-12-07T04:52:55.230Z,0.00
2022-12-07T04:53:55.213Z,0.00
2022-12-07T04:54:55.210Z,0.00
2022-12-07T04:55:55.215Z,0.00
2022-12-07T04:56:55.205Z,0.00
2022-12-07T04:57:55.220Z,0.00
2022-12-07T04:58:55.208Z,0.00
2022-12-07T04:59:55.197Z,0.00
2022-12-07T05:00:55.228Z,0.00
2022-12-07T05:01:55.291Z,0.00
2022-12-07T05:02:55.200Z,0.00
2022-12-07T05:03:55.186Z,0.00
2022-12-07T05:04:55.167Z,0.00
2022-12-07T05:05:55.190Z,0.00
2022-12-07T05:06:55.164Z,0.00
2022-12-07T05:07:55.259Z,0.00
2022-12-07T05:08:55.159Z,0.00
2022-12-07T05:09:55.152Z,0.00
2022-12-07T05:10:55.149Z,0.00
2022-12-07T05:11:55.134Z,0.00
2022-12-07T05:12:55.144Z,0.00
2022-12-07T05:13:55.147Z,0.00
2022-12-07T05:14:55.141Z,0.00
2022-12-07T05:15:55.154Z,0.00
2022-12-07T05:16:55.120Z,0.00
2022-12-07T05:17:55.115Z,0.00
2022-12-07T05:18:55.118Z,0.00
2022-12-07T05:19:55.120Z,0.00
2022-12-07T05:20:55.108Z,0.00
2022-12-07T05:21:55.105Z,0.00
2022-12-07T05:22:55.089Z,0.00
2022-12-07T05:23:55.078Z,0.00
2022-12-07T05:24:55.076Z,0.00
2022-12-07T05:25:55.079Z,0.00
2022-12-07T05:26:55.077Z,0.00
2022-12-07T05:27:55.081Z,0.00
2022-12-07T05:28:55.061Z,0.00
2022-12-07T05:29:55.073Z,0.00
2022-12-07T05:30:59.715Z,0.00
2022-12-07T05:31:55.095Z,0.00
2022-12-07T05:32:55.056Z,0.00
2022-12-07T05:33:55.053Z,0.00
2022-12-07T05:34:55.040Z,0.00
2022-12-07T05:35:55.036Z,0.00
2022-12-07T05:36:55.028Z,0.00
2022-12-07T05:37:55.015Z,0.00
2022-12-07T05:38:55.018Z,0.00
2022-12-07T05:39:55.009Z,0.00
2022-12-07T05:40:55.020Z,0.00
2022-12-07T05:41:55.003Z,0.00
2022-12-07T05:42:56.137Z,0.00
2022-12-07T05:43:54.990Z,0.00
2022-12-07T05:44:54.990Z,0.00
2022-12-07T05:45:55.034Z,0.00
2022-12-07T05:46:54.990Z,0.00
2022-12-07T05:47:54.975Z,0.00
2022-12-07T05:48:54.973Z,0.00
2022-12-07T05:49:54.965Z,0.00
2022-12-07T05:50:54.956Z,0.00
2022-12-07T05:51:54.974Z,0.00
2022-12-07T05:52:54.949Z,0.00
2022-12-07T05:53:54.951Z,0.00
2022-12-07T05:54:54.969Z,0.00
2022-12-07T05:55:54.947Z,0.00
2022-12-07T05:56:54.930Z,0.00
2022-12-07T05:57:54.945Z,0.00
2022-12-07T05:58:54.933Z,0.00
2022-12-07T05:59:54.927Z,0.00
2022-12-07T06:00:54.925Z,0.00
2022-12-07T06:01:55.092Z,0.00
2022-12-07T06:02:55.100Z,0.00
2022-12-07T06:03:54.899Z,0.00
2022-12-07T06:04:54.889Z,0.00
2022-12-07T06:05:55.008Z,0.00
2022-12-07T06:06:54.902Z,0.00
2022-12-07T06:07:54.939Z,0.00
2022-12-07T06:08:54.875Z,0.00
2022-12-07T06:09:54.869Z,0.00
2022-12-07T06:10:54.867Z,0.00
2022-12-07T06:11:54.870Z,0.00
2022-12-07T06:12:54.866Z,0.00
2022-12-07T06:13:54.866Z,0.00
2022-12-07T06:14:54.852Z,0.00
2022-12-07T06:15:54.855Z,0.00
2022-12-07T06:16:54.892Z,0.00
2022-12-07T06:17:54.859Z,0.00
2022-12-07T06:18:54.834Z,0.00
2022-12-07T06:19:54.827Z,0.00
2022-12-07T06:20:54.841Z,0.00
2022-12-07T06:21:54.836Z,0.00
2022-12-07T06:22:54.811Z,0.00
2022-12-07T06:23:54.815Z,0.00
2022-12-07T06:24:54.823Z,0.00
2022-12-07T06:25:54.796Z,0.00
2022-12-07T06:26:54.796Z,0.00
2022-12-07T06:27:54.801Z,0.00
2022-12-07T06:28:54.803Z,0.00
2022-12-07T06:29:54.779Z,0.00
2022-12-07T06:30:54.794Z,0.00
2022-12-07T06:31:54.828Z,0.00
2022-12-07T06:32:54.775Z,0.00
2022-12-07T06:33:54.779Z,0.00
2022-12-07T06:34:54.772Z,0.00
2022-12-07T06:35:54.767Z,0.00
2022-12-07T06:36:54.748Z,0.00
2022-12-07T06:37:54.779Z,0.00
2022-12-07T06:38:54.745Z,0.00
2022-12-07T06:39:54.752Z,0.00
2022-12-07T06:40:54.729Z,0.00
2022-12-07T06:41:54.736Z,0.00
2022-12-07T06:42:54.757Z,0.00
2022-12-07T06:43:56.397Z,0.00
2022-12-07T06:44:54.712Z,0.00
2022-12-07T06:45:56.361Z,0.00
2022-12-07T06:47:12.190Z,0.00
2022-12-07T06:47:59.268Z,0.00
2022-12-07T06:48:54.777Z,0.00
2022-12-07T06:49:54.692Z,0.00
2022-12-07T06:50:55.531Z,4.00
2022-12-07T06:51:54.724Z,4.00
2022-12-07T06:53:01.381Z,4.00
2022-12-07T06:53:55.043Z,0.00
2022-12-07T06:54:54.991Z,4.00
2022-12-07T06:55:54.723Z,4.00
2022-12-07T06:56:54.655Z,4.00
2022-12-07T06:57:55.549Z,4.00
2022-12-07T06:58:58.003Z,8.00
2022-12-07T06:59:55.864Z,8.00
2022-12-07T07:00:54.654Z,8.00
2022-12-07T07:01:54.699Z,8.00
2022-12-07T07:02:54.760Z,12.00
2022-12-07T07:03:54.799Z,8.00
2022-12-07T07:04:54.660Z,12.00
2022-12-07T07:05:54.662Z,16.00
2022-12-07T07:06:59.826Z,12.00
2022-12-07T07:08:24.551Z,16.00
2022-12-07T07:09:01.561Z,20.00
2022-12-07T07:09:54.598Z,24.00
2022-12-07T07:10:54.607Z,24.00
2022-12-07T07:11:55.852Z,24.00
2022-12-07T07:12:57.760Z,28.00
2022-12-07T07:13:54.576Z,32.00
2022-12-07T07:14:54.618Z,36.00
2022-12-07T07:15:54.600Z,40.00
2022-12-07T07:16:54.631Z,44.00
2022-12-07T07:17:54.559Z,44.00
2022-12-07T07:18:54.559Z,52.00
2022-12-07T07:19:54.563Z,56.00
2022-12-07T07:20:54.556Z,60.00
2022-12-07T07:21:54.537Z,64.00
2022-12-07T07:22:54.549Z,60.00
2022-12-07T07:23:54.575Z,64.00
2022-12-07T07:24:54.544Z,68.00
2022-12-07T07:25:54.526Z,72.00
2022-12-07T07:26:54.531Z,80.00
2022-12-07T07:27:54.542Z,84.00
2022-12-07T07:28:54.525Z,88.00
2022-12-07T07:29:54.507Z,92.00
2022-12-07T07:30:55.560Z,100.00
2022-12-07T07:32:01.893Z,104.00
2022-12-07T07:34:25.417Z,108.00
2022-12-07T07:34:54.481Z,108.00
2022-12-07T07:35:55.749Z,108.00
2022-12-07T07:36:54.466Z,112.00
2022-12-07T07:37:54.626Z,112.00
2022-12-07T07:38:54.484Z,112.00
2022-12-07T07:39:54.458Z,112.00
2022-12-07T07:40:54.473Z,120.00
2022-12-07T07:41:55.174Z,124.00
2022-12-07T07:42:55.124Z,132.00
2022-12-07T07:43:57.343Z,136.00
2022-12-07T07:44:54.517Z,148.00
2022-12-07T07:45:54.518Z,152.00
2022-12-07T07:46:54.606Z,168.00
2022-12-07T07:47:57.305Z,172.00
2022-12-07T07:48:55.170Z,172.00
2022-12-07T07:49:54.415Z,176.00
2022-12-07T07:50:54.457Z,184.00
2022-12-07T07:51:54.463Z,208.00
2022-12-07T07:52:54.399Z,248.00
2022-12-07T07:53:54.431Z,276.00
2022-12-07T07:54:54.409Z,288.00
2022-12-07T07:55:54.423Z,276.00
2022-12-07T07:56:55.401Z,268.00
2022-12-07T07:57:55.066Z,272.00
2022-12-07T08:00:55.364Z,260.00
2022-12-07T08:01:54.486Z,260.00
2022-12-07T08:02:54.420Z,260.00
2022-12-07T08:03:54.874Z,260.00
2022-12-07T08:04:54.408Z,268.00
2022-12-07T08:05:54.335Z,276.00
2022-12-07T08:06:54.352Z,280.00
2022-12-07T08:07:54.382Z,272.00
2022-12-07T08:08:57.322Z,256.00
2022-12-07T08:09:54.318Z,248.00
2022-12-07T08:10:54.323Z,256.00
2022-12-07T08:11:54.307Z,260.00
2022-12-07T08:12:54.329Z,292.00
2022-12-07T08:13:54.308Z,324.00
2022-12-07T08:15:54.399Z,392.00
2022-12-07T08:16:54.343Z,392.00
2022-12-07T08:17:54.435Z,356.00
2022-12-07T08:18:54.279Z,328.00
2022-12-07T08:19:54.279Z,328.00
2022-12-07T08:20:54.305Z,320.00
2022-12-07T08:22:00.135Z,324.00
2022-12-07T08:22:54.785Z,340.00
2022-12-07T08:23:55.082Z,356.00
2022-12-07T08:24:55.005Z,376.00
2022-12-07T08:25:54.818Z,396.00
2022-12-07T08:26:54.235Z,412.00
2022-12-07T08:27:54.364Z,440.00
2022-12-07T08:28:54.319Z,484.00
2022-12-07T08:29:54.936Z,528.00
2022-12-07T08:30:54.441Z,580.00
2022-12-07T08:31:54.305Z,600.00
2022-12-07T08:32:54.342Z,604.00
2022-12-07T08:33:54.207Z,612.00
2022-12-07T08:34:54.253Z,632.00
2022-12-07T08:35:54.415Z,660.00
2022-12-07T08:36:54.272Z,688.00
2022-12-07T08:37:54.245Z,728.00
2022-12-07T08:39:29.039Z,1100.00
2022-12-07T08:39:54.934Z,1108.00
2022-12-07T08:40:54.177Z,912.00
2022-12-07T08:41:54.182Z,796.00
2022-12-07T08:43:01.124Z,864.00
2022-12-07T08:44:15.318Z,860.00
2022-12-07T08:45:29.946Z,772.00
2022-12-07T08:46:01.042Z,1024.00
2022-12-07T08:46:54.245Z,876.00
2022-12-07T08:48:00.137Z,1016.00
2022-12-07T08:48:54.140Z,1440.00
2022-12-07T08:49:55.028Z,1468.00
2022-12-07T08:50:54.131Z,1468.00
2022-12-07T08:51:54.176Z,1336.00
2022-12-07T08:52:54.198Z,1180.00
2022-12-07T08:53:54.141Z,776.00
2022-12-07T08:54:54.132Z,796.00
2022-12-07T08:55:54.176Z,808.00
2022-12-07T08:56:58.762Z,1024.00
2022-12-07T08:57:54.112Z,1072.00
2022-12-07T08:58:54.140Z,1272.00
2022-12-07T08:59:54.877Z,1436.00
2022-12-07T09:00:55.194Z,1580.00
2022-12-07T09:01:54.240Z,1704.00
2022-12-07T09:02:56.800Z,1800.00
2022-12-07T09:03:58.321Z,1828.00
2022-12-07T09:04:54.074Z,1820.00
2022-12-07T09:05:54.339Z,1788.00
2022-12-07T09:06:57.258Z,1772.00
2022-12-07T09:07:54.129Z,1720.00
2022-12-07T09:08:55.001Z,1828.00
2022-12-07T09:09:54.185Z,1880.00
2022-12-07T09:10:56.851Z,1896.00
2022-12-07T09:11:54.069Z,1924.00
2022-12-07T09:12:54.064Z,1416.00
2022-12-07T09:13:54.067Z,1660.00
2022-12-07T09:14:54.886Z,1960.00
2022-12-07T09:15:54.123Z,2008.00
2022-12-07T09:16:54.027Z,2068.00
2022-12-07T09:17:56.133Z,2124.00
2022-12-07T09:18:54.374Z,2136.00
2022-12-07T09:19:54.055Z,2184.00
2022-12-07T09:21:01.259Z,2232.00
2022-12-07T09:22:00.924Z,2284.00
2022-12-07T09:22:55.611Z,2232.00
2022-12-07T09:23:54.116Z,2196.00
2022-12-07T09:24:56.919Z,1896.00
2022-12-07T09:25:54.447Z,2280.00
2022-12-07T09:26:54.032Z,1956.00
2022-12-07T09:27:54.041Z,2028.00
2022-12-07T09:28:54.027Z,2028.00
2022-12-07T09:29:57.116Z,2344.00
2022-12-07T09:31:22.169Z,2508.00
2022-12-07T09:31:54.022Z,2600.00
2022-12-07T09:33:09.319Z,2700.00
2022-12-07T09:33:54.037Z,2020.00
2022-12-07T09:34:57.266Z,1712.00
2022-12-07T09:35:57.872Z,1600.00
2022-12-07T09:36:53.972Z,1404.00
2022-12-07T09:37:54.737Z,1300.00
2022-12-07T09:38:56.456Z,1244.00
2022-12-07T09:39:55.769Z,1272.00
2022-12-07T09:40:57.401Z,1280.00
2022-12-07T09:41:54.584Z,1484.00
2022-12-07T09:42:54.283Z,1332.00
2022-12-07T09:43:59.034Z,1312.00
2022-12-07T09:44:55.260Z,1324.00
2022-12-07T09:45:55.077Z,1384.00
2022-12-07T09:46:54.169Z,1424.00
2022-12-07T09:47:54.054Z,1336.00
2022-12-07T09:48:54.218Z,1388.00
2022-12-07T09:49:56.988Z,1744.00
2022-12-07T09:50:54.905Z,2480.00
2022-12-07T09:51:54.855Z,2552.00
2022-12-07T09:57:32.724Z,2668.00
2022-12-07T09:58:32.201Z,1908.00
2022-12-07T09:59:38.638Z,1672.00
2022-12-07T10:00:31.926Z,1476.00
2022-12-07T10:01:32.038Z,1432.00
2022-12-07T10:02:31.880Z,1396.00
2022-12-07T10:13:57.698Z,1912.00
2022-12-07T10:15:13.143Z,2092.00
2022-12-07T10:16:07.117Z,2148.00
2022-12-07T10:16:58.571Z,2184.00
2022-12-07T10:17:58.400Z,2148.00
2022-12-07T10:18:57.641Z,2448.00
2022-12-07T10:19:57.618Z,2036.00
2022-12-07T10:20:59.736Z,2040.00
2022-12-07T10:21:57.630Z,2108.00
2022-12-07T10:22:57.615Z,2152.00
2022-12-07T10:23:57.771Z,2208.00
2022-12-07T10:24:57.605Z,2280.00
2022-12-07T10:26:10.145Z,2484.00
2022-12-07T10:26:57.641Z,2524.00
2022-12-07T10:27:58.518Z,2644.00
2022-12-07T10:28:57.907Z,2412.00
2022-12-07T10:29:59.167Z,2336.00
2022-12-07T10:30:57.741Z,2252.00
2022-12-07T10:31:58.863Z,2228.00
2022-12-07T10:33:04.152Z,2180.00
2022-12-07T10:33:59.060Z,2120.00
2022-12-07T10:34:57.563Z,2016.00
2022-12-07T10:36:00.076Z,1828.00
2022-12-07T10:36:57.731Z,1656.00
2022-12-07T10:37:57.777Z,1572.00
2022-12-07T10:39:04.125Z,1600.00
2022-12-07T10:40:00.120Z,1748.00
2022-12-07T10:40:57.941Z,1656.00
2022-12-07T10:41:57.619Z,1580.00
2022-12-07T10:42:57.704Z,1456.00
2022-12-07T10:43:58.307Z,1368.00
2022-12-07T10:44:57.753Z,1296.00
2022-12-07T10:46:03.768Z,1236.00
2022-12-07T10:47:08.360Z,1212.00
2022-12-07T10:47:57.574Z,1236.00
2022-12-07T10:48:58.437Z,1256.00
2022-12-07T10:49:57.522Z,1252.00
2022-12-07T10:50:57.521Z,1312.00
2022-12-07T10:51:57.558Z,1392.00
2022-12-07T10:52:57.509Z,1440.00
2022-12-07T10:53:57.506Z,1500.00
2022-12-07T10:54:57.509Z,1600.00
2022-12-07T10:55:57.592Z,1680.00
2022-12-07T10:56:57.512Z,1720.00
2022-12-07T10:57:57.494Z,1756.00
2022-12-07T10:58:57.528Z,1752.00
2022-12-07T10:59:57.493Z,1752.00
2022-12-07T11:00:57.567Z,1748.00
2022-12-07T11:01:57.548Z,1840.00
2022-12-07T11:02:57.490Z,1880.00
2022-12-07T11:03:57.479Z,1900.00
2022-12-07T11:04:57.471Z,2108.00
2022-12-07T11:06:12.115Z,2392.00
2022-12-07T11:06:57.473Z,2504.00
2022-12-07T11:07:57.580Z,2352.00
2022-12-07T11:08:57.474Z,2276.00
2022-12-07T11:10:13.005Z,3196.00
2022-12-07T11:10:57.466Z,3684.00
2022-12-07T11:11:57.457Z,4028.00
2022-12-07T11:12:57.449Z,3940.00
2022-12-07T11:13:57.461Z,4092.00
2022-12-07T11:14:57.464Z,2960.00
2022-12-07T11:15:57.522Z,2496.00
2022-12-07T11:16:57.456Z,1992.00
2022-12-07T11:17:57.473Z,2008.00
2022-12-07T11:18:57.445Z,1616.00
2022-12-07T11:20:57.427Z,1796.00
2022-12-07T11:21:57.421Z,2008.00
2022-12-07T11:22:57.419Z,2176.00
2022-12-07T11:23:57.432Z,2188.00
2022-12-07T11:24:57.503Z,2288.00
2022-12-07T11:25:57.427Z,2444.00
2022-12-07T11:26:58.074Z,2424.00
2022-12-07T11:27:57.437Z,2324.00
2022-12-07T11:28:58.405Z,2228.00
2022-12-07T11:29:57.400Z,2124.00
2022-12-07T11:30:58.695Z,2040.00
2022-12-07T11:31:57.556Z,1864.00
2022-12-07T11:32:58.041Z,1656.00
2022-12-07T11:33:57.872Z,1552.00
2022-12-07T11:34:57.572Z,1668.00
2022-12-07T11:35:57.407Z,2012.00
2022-12-07T11:36:57.378Z,2292.00
2022-12-07T11:37:59.160Z,2264.00
2022-12-07T11:38:57.392Z,2020.00
2022-12-07T11:39:57.391Z,1728.00
2022-12-07T11:40:57.412Z,1488.00
2022-12-07T11:41:57.522Z,1372.00
2022-12-07T11:42:57.394Z,1384.00
2022-12-07T11:43:57.388Z,1460.00
2022-12-07T11:44:57.384Z,1576.00
2022-12-07T11:45:57.369Z,1624.00
2022-12-07T11:46:57.457Z,1540.00
2022-12-07T11:47:57.357Z,1376.00
2022-12-07T11:48:57.365Z,1236.00
2022-12-07T11:49:57.375Z,1116.00
2022-12-07T11:50:57.350Z,1056.00
2022-12-07T11:51:57.347Z,1112.00
2022-12-07T11:52:57.375Z,1332.00
2022-12-07T11:53:57.342Z,1704.00
2022-12-07T11:54:57.335Z,2140.00
2022-12-07T11:55:57.454Z,2692.00
2022-12-07T11:56:57.337Z,3328.00
2022-12-07T11:57:57.328Z,3672.00
2022-12-07T11:58:57.338Z,3636.00
2022-12-07T11:59:57.373Z,3300.00
2022-12-07T12:00:57.341Z,3256.00
2022-12-07T12:01:57.421Z,3208.00
2022-12-07T12:02:57.362Z,3152.00
2022-12-07T12:03:57.396Z,3304.00
2022-12-07T12:04:57.307Z,3248.00
2022-12-07T12:05:57.327Z,3260.00
2022-12-07T12:06:57.543Z,3240.00
2022-12-07T12:09:57.345Z,4268.00
2022-12-07T12:10:57.288Z,4780.00
2022-12-07T12:14:57.326Z,3140.00
2022-12-07T12:15:59.074Z,3352.00
2022-12-07T12:17:23.796Z,3784.00
2022-12-07T12:18:02.110Z,3812.00
2022-12-07T12:18:57.274Z,4484.00
2022-12-07T12:19:57.275Z,4732.00
2022-12-07T12:20:57.483Z,4760.00
2022-12-07T12:21:58.473Z,4056.00
2022-12-07T12:22:57.256Z,3804.00
2022-12-07T12:23:57.264Z,3384.00
2022-12-07T12:24:57.255Z,2948.00
2022-12-07T12:25:57.284Z,2764.00
2022-12-07T12:26:57.253Z,2664.00
2022-12-07T12:27:57.271Z,2640.00
2022-12-07T12:28:57.269Z,2664.00
2022-12-07T12:29:57.257Z,2696.00
2022-12-07T12:30:57.247Z,2732.00
2022-12-07T12:31:57.319Z,2716.00
2022-12-07T12:32:57.246Z,2596.00
2022-12-07T12:33:57.231Z,2504.00
2022-12-07T12:34:57.252Z,2436.00
2022-12-07T12:35:57.311Z,2432.00
2022-12-07T12:36:57.216Z,2396.00
2022-12-07T12:37:57.261Z,2384.00
2022-12-07T12:38:57.215Z,2420.00
2022-12-07T12:39:57.216Z,2304.00
2022-12-07T12:40:57.281Z,2544.00
2022-12-07T12:41:57.218Z,2976.00
2022-12-07T12:42:57.226Z,2908.00
2022-12-07T12:43:57.233Z,3180.00
2022-12-07T12:44:57.208Z,3220.00
2022-12-07T12:45:57.237Z,3148.00
2022-12-07T12:46:57.226Z,3536.00
2022-12-07T12:47:57.214Z,3736.00
2022-12-07T12:48:57.196Z,4360.00
2022-12-07T12:49:57.193Z,6180.00
2022-12-07T12:50:57.199Z,6572.00
2022-12-07T12:51:57.203Z,4932.00
2022-12-07T12:52:57.190Z,5052.00
2022-12-07T12:53:57.190Z,5228.00
2022-12-07T12:54:57.178Z,5756.00
2022-12-07T12:55:57.176Z,6628.00
2022-12-07T12:56:57.331Z,7432.00
2022-12-07T12:57:57.176Z,8964.00
2022-12-07T12:58:57.178Z,8156.00
2022-12-07T12:59:57.164Z,8392.00
2022-12-07T13:00:57.232Z,8552.00
2022-12-07T13:01:57.198Z,8060.00
2022-12-07T13:02:57.263Z,7236.00
2022-12-07T13:03:57.192Z,6916.00
2022-12-07T13:04:57.163Z,7908.00
2022-12-07T13:05:57.151Z,6972.00
2022-12-07T13:06:57.166Z,5752.00
2022-12-07T13:07:57.222Z,3840.00
2022-12-07T13:08:57.153Z,2932.00
2022-12-07T13:09:57.168Z,2496.00
2022-12-07T13:10:57.163Z,2164.00
2022-12-07T13:11:57.152Z,1968.00
2022-12-07T13:12:57.143Z,1904.00
2022-12-07T13:13:57.147Z,1952.00
2022-12-07T13:14:57.136Z,1972.00
2022-12-07T13:15:57.161Z,2100.00
2022-12-07T13:16:57.183Z,2224.00
2022-12-07T13:17:57.143Z,2192.00
2022-12-07T13:18:57.155Z,2408.00
2022-12-07T13:19:57.122Z,2660.00
2022-12-07T13:20:57.125Z,2920.00
2022-12-07T13:21:57.122Z,2732.00
2022-12-07T13:22:57.123Z,2540.00
2022-12-07T13:23:57.121Z,2392.00
2022-12-07T13:24:57.118Z,1976.00
2022-12-07T13:25:57.119Z,1772.00
2022-12-07T13:26:57.105Z,1568.00
2022-12-07T13:27:57.113Z,1476.00
2022-12-07T13:28:57.099Z,1620.00
2022-12-07T13:30:03.739Z,2104.00
2022-12-07T13:30:57.172Z,4824.00
2022-12-07T13:31:57.092Z,5548.00
2022-12-07T13:32:57.088Z,5804.00
2022-12-07T13:33:57.084Z,5992.00
2022-12-07T13:34:57.083Z,5020.00
2022-12-07T13:35:57.103Z,2360.00
2022-12-07T13:36:57.090Z,3472.00
2022-12-07T13:37:57.075Z,2136.00
2022-12-07T13:38:57.073Z,2244.00
2022-12-07T13:39:57.076Z,2900.00
2022-12-07T13:40:57.070Z,4788.00
2022-12-07T13:41:57.080Z,3856.00
2022-12-07T13:42:57.062Z,3624.00
2022-12-07T13:43:57.098Z,2344.00
2022-12-07T13:44:57.055Z,2204.00
2022-12-07T13:45:57.095Z,2140.00
2022-12-07T13:46:57.054Z,2392.00
2022-12-07T13:47:57.064Z,2640.00
2022-12-07T13:48:57.088Z,2276.00
2022-12-07T13:49:57.046Z,3340.00
2022-12-07T13:50:57.050Z,4788.00
2022-12-07T13:51:57.039Z,2712.00
2022-12-07T13:52:57.037Z,3376.00
2022-12-07T13:53:57.061Z,2780.00
2022-12-07T13:54:57.028Z,3144.00
2022-12-07T13:55:57.028Z,2708.00
2022-12-07T13:56:57.028Z,2464.00
2022-12-07T13:57:57.059Z,3648.00
2022-12-07T13:58:57.051Z,4016.00
2022-12-07T13:59:57.017Z,2876.00
2022-12-07T14:00:57.057Z,2596.00
2022-12-07T14:01:57.137Z,3016.00
2022-12-07T14:02:57.058Z,4500.00
2022-12-07T14:03:57.006Z,2984.00
2022-12-07T14:04:57.023Z,3684.00
2022-12-07T14:05:56.999Z,3500.00
2022-12-07T14:06:57.005Z,3664.00
2022-12-07T14:07:57.064Z,3696.00
2022-12-07T14:08:58.766Z,4328.00
2022-12-07T14:09:57.005Z,4732.00
2022-12-07T14:10:57.005Z,3896.00
2022-12-07T14:11:57.066Z,2760.00
2022-12-07T14:12:56.980Z,2368.00
2022-12-07T14:13:56.992Z,2256.00
2022-12-07T14:14:56.991Z,2220.00
2022-12-07T14:15:56.977Z,2188.00
2022-12-07T14:16:56.998Z,2112.00
2022-12-07T14:17:56.981Z,1968.00
2022-12-07T14:18:56.968Z,1776.00
2022-12-07T14:19:56.959Z,1584.00
2022-12-07T14:20:56.959Z,1440.00
2022-12-07T14:21:56.960Z,1312.00
2022-12-07T14:22:56.952Z,1168.00
2022-12-07T14:23:56.950Z,1032.00
2022-12-07T14:24:57.000Z,896.00
2022-12-07T14:25:56.945Z,792.00
2022-12-07T14:26:56.978Z,768.00
2022-12-07T14:27:56.957Z,780.00
2022-12-07T14:28:56.935Z,760.00
2022-12-07T14:29:56.956Z,768.00
2022-12-07T14:30:56.982Z,796.00
2022-12-07T14:31:56.926Z,808.00
2022-12-07T14:32:56.933Z,760.00
2022-12-07T14:33:56.932Z,680.00
2022-12-07T14:34:56.927Z,576.00
2022-12-07T14:35:56.913Z,492.00
2022-12-07T14:36:56.910Z,424.00
2022-12-07T14:37:56.905Z,364.00
2022-12-07T14:38:56.944Z,324.00
2022-12-07T14:39:56.900Z,356.00
2022-12-07T14:40:56.942Z,448.00
2022-12-07T14:41:56.894Z,516.00
2022-12-07T14:42:56.888Z,528.00
2022-12-07T14:44:21.886Z,520.00
2022-12-07T14:44:56.886Z,492.00
2022-12-07T14:45:56.967Z,456.00
2022-12-07T14:49:59.193Z,328.00
2022-12-07T14:53:57.693Z,212.00
2022-12-07T14:54:56.852Z,204.00
2022-12-07T14:55:56.858Z,208.00
2022-12-07T14:56:56.841Z,220.00
2022-12-07T14:57:56.841Z,232.00
2022-12-07T14:58:56.836Z,236.00
2022-12-07T14:59:56.830Z,232.00
2022-12-07T15:00:56.836Z,224.00
2022-12-07T15:01:56.833Z,208.00
2022-12-07T15:02:56.825Z,196.00
2022-12-07T15:03:56.982Z,188.00
2022-12-07T15:04:56.903Z,180.00
2022-12-07T15:05:56.822Z,168.00
2022-12-07T15:06:56.819Z,160.00
2022-12-07T15:07:56.916Z,148.00
2022-12-07T15:08:56.797Z,144.00
2022-12-07T15:09:56.793Z,136.00
2022-12-07T15:10:56.798Z,128.00
2022-12-07T15:11:56.798Z,112.00
2022-12-07T15:12:56.785Z,104.00
2022-12-07T15:13:56.778Z,92.00
2022-12-07T15:14:56.773Z,84.00
2022-12-07T15:15:56.919Z,76.00
2022-12-07T15:17:14.680Z,68.00
2022-12-07T15:17:56.776Z,60.00
2022-12-07T15:19:26.142Z,56.00
2022-12-07T15:19:56.810Z,48.00
2022-12-07T15:20:56.754Z,48.00
2022-12-07T15:21:56.746Z,44.00
2022-12-07T15:22:56.784Z,40.00
2022-12-07T15:23:56.743Z,36.00
2022-12-07T15:24:56.752Z,36.00
2022-12-07T15:25:56.736Z,32.00
2022-12-07T15:26:56.730Z,32.00
2022-12-07T15:27:56.726Z,28.00
2022-12-07T15:28:56.718Z,24.00
2022-12-07T15:29:56.719Z,20.00
2022-12-07T15:30:56.773Z,20.00
2022-12-07T15:31:58.057Z,16.00
2022-12-07T15:32:56.705Z,12.00
2022-12-07T15:33:56.714Z,12.00
2022-12-07T15:34:56.708Z,12.00
2022-12-07T15:35:56.693Z,12.00
2022-12-07T15:36:56.686Z,8.00
2022-12-07T15:37:56.682Z,8.00
2022-12-07T15:39:13.540Z,8.00
2022-12-07T15:39:56.690Z,4.00
2022-12-07T15:40:56.675Z,4.00
2022-12-07T15:41:56.668Z,4.00
2022-12-07T15:42:56.667Z,0.00
2022-12-07T15:43:56.661Z,4.00
2022-12-07T15:44:56.691Z,0.00
2022-12-07T15:45:56.676Z,0.00
2022-12-07T15:46:56.722Z,4.00
2022-12-07T15:48:27.350Z,4.00
2022-12-07T15:48:56.640Z,0.00
2022-12-07T15:49:56.692Z,0.00
2022-12-07T15:50:56.635Z,0.00
2022-12-07T15:51:56.626Z,0.00
2022-12-07T15:52:56.624Z,0.00
2022-12-07T15:53:56.628Z,0.00
2022-12-07T15:54:56.623Z,0.00
2022-12-07T15:55:56.613Z,0.00
2022-12-07T15:56:56.606Z,0.00
2022-12-07T15:57:56.612Z,0.00
2022-12-07T15:58:56.616Z,0.00
2022-12-07T15:59:56.606Z,0.00
2022-12-07T16:00:56.590Z,0.00
2022-12-07T16:01:56.699Z,0.00
2022-12-07T16:13:13.168Z,0.00
2022-12-07T16:14:13.106Z,0.00
2022-12-07T16:15:13.102Z,0.00
2022-12-07T16:16:13.219Z,0.00
2022-12-07T16:17:13.087Z,0.00
2022-12-07T16:18:13.117Z,0.00
2022-12-07T16:19:13.083Z,0.00
2022-12-07T16:20:13.083Z,0.00
2022-12-07T16:21:13.062Z,0.00
2022-12-07T16:22:13.063Z,0.00
2022-12-07T16:23:13.053Z,0.00
2022-12-07T16:24:13.052Z,0.00
2022-12-07T16:25:13.042Z,0.00
2022-12-07T16:26:13.078Z,0.00
2022-12-07T16:27:13.033Z,0.00
2022-12-07T16:28:13.042Z,0.00
2022-12-07T16:29:13.062Z,0.00
2022-12-07T16:30:13.021Z,0.00
2022-12-07T16:31:13.111Z,0.00
2022-12-07T16:32:13.010Z,0.00
2022-12-07T16:33:13.003Z,0.00
2022-12-07T16:34:13.011Z,0.00
2022-12-07T16:35:13.013Z,0.00
2022-12-07T16:36:13.012Z,0.00
2022-12-07T16:37:12.986Z,0.00
2022-12-07T16:38:12.980Z,0.00
2022-12-07T16:39:12.981Z,0.00
2022-12-07T16:40:12.970Z,0.00
2022-12-07T16:41:12.979Z,0.00
2022-12-07T16:42:12.962Z,0.00
2022-12-07T16:43:13.204Z,0.00
2022-12-07T16:44:12.982Z,0.00
2022-12-07T16:45:16.364Z,0.00
2022-12-07T16:46:12.983Z,0.00
2022-12-07T16:47:13.045Z,0.00
2022-12-07T16:48:12.944Z,0.00
2022-12-07T16:49:12.941Z,0.00
2022-12-07T16:50:12.943Z,0.00
2022-12-07T16:51:12.922Z,0.00
2022-12-07T16:52:20.226Z,0.00
2022-12-07T16:53:12.910Z,0.00
2022-12-07T16:54:12.914Z,0.00
2022-12-07T16:55:12.903Z,0.00
2022-12-07T16:56:12.900Z,0.00
2022-12-07T16:57:16.791Z,0.00
2022-12-07T16:58:12.893Z,0.00
2022-12-07T16:59:12.890Z,0.00
2022-12-07T17:00:12.886Z,0.00
2022-12-07T17:01:12.988Z,0.00
2022-12-07T17:02:12.872Z,0.00
2022-12-07T17:03:16.292Z,0.00
2022-12-07T17:04:12.965Z,0.00
2022-12-07T17:05:12.914Z,0.00
2022-12-07T17:06:12.856Z,0.00
2022-12-07T17:07:12.850Z,0.00
2022-12-07T17:08:12.898Z,0.00
2022-12-07T17:09:16.407Z,0.00
2022-12-07T17:10:12.846Z,0.00
2022-12-07T17:11:12.833Z,0.00
2022-12-07T17:12:12.849Z,0.00
2022-12-07T17:13:12.820Z,0.00
2022-12-07T17:14:12.827Z,0.00
2022-12-07T17:15:12.823Z,0.00
2022-12-07T17:16:12.876Z,0.00
2022-12-07T17:17:12.829Z,0.00
2022-12-07T17:18:12.803Z,0.00